Plainville, Illinois
Current Conditions -  °F | °C
As of 12:54 AM on Sunday 26 Oct 2014 (Local Time) from KUIN Reporting Station
Clear Clear  
Wind Chill: 51°   Ceiling: Unl
Heat Index: 51°   Visibility: 10mi
Dew Point: 39°   Wind: 8mph
Humidity: 63%   Direction: 50°NE
Pressure: 30.04"   Gusts: NA
Location:  39.79°N, 91.19°W
Report Text: KUIN 260554Z AUTO 05007KT 10SM CLR 11/04 A3004 RMK AO2 SLP169 T01060039 10194 20106 402500106 58001
Loading
Personal Weather Stations






























Interactive Weather Map
Tropical Storm Tracking
New forecast layout! Learn more

10-Day Weather Forecast

Advertisements
Track Severe Weather on mobile